Time;durP1;ratioP1;P1;durP2;ratioP2;P2;SDS_P1;SDS_P2;PMS_P1;PMS_P2;Temp;Humidity;BMP_temperature;BMP_pressure;BME280_temperature;BME280_humidity;BME280_pressure;Samples;Min_cycle;Max_cycle;Signal;HPM_P1;HPM_P2
2023/05/19 00:00:23;;;;;;;16.40;4.10;;;9.90;99.90;;;10.66;100.00;98813.56;4924250;29;20470;-80
2023/05/19 00:02:54;;;;;;;6.40;2.53;;;9.80;99.90;;;10.59;100.00;98816.88;4927398;29;20488;-79
2023/05/19 00:05:26;;;;;;;7.70;2.97;;;9.80;99.90;;;10.57;100.00;98820.66;4924189;29;20849;-79
2023/05/19 00:08:00;;;;;;;7.97;2.87;;;9.80;99.90;;;10.55;100.00;98810.34;4925639;29;21067;-80
2023/05/19 00:10:31;;;;;;;9.90;3.10;;;9.70;99.90;;;10.52;100.00;98815.91;4919010;29;20699;-80
2023/05/19 00:13:02;;;;;;;6.73;2.20;;;9.70;99.90;;;10.51;100.00;98813.47;4922797;29;20471;-79
2023/05/19 00:15:32;;;;;;;5.87;2.47;;;9.70;99.90;;;10.48;100.00;98806.75;4926020;29;20466;-79
2023/05/19 00:18:00;;;;;;;8.27;2.83;;;9.70;99.90;;;10.44;100.00;98804.66;4924429;29;20508;-79
2023/05/19 00:20:30;;;;;;;6.07;2.20;;;9.60;99.90;;;10.43;100.00;98808.25;4925280;29;20467;-82
2023/05/19 00:23:00;;;;;;;7.10;3.07;;;9.60;99.90;;;10.39;100.00;98807.78;4925284;29;20557;-80
2023/05/19 00:25:30;;;;;;;5.93;2.67;;;9.50;99.90;;;10.34;100.00;98794.41;4908913;29;20992;-79
2023/05/19 00:28:01;;;;;;;10.90;2.50;;;9.50;99.90;;;10.35;100.00;98798.63;4928608;29;21097;-79
2023/05/19 00:30:30;;;;;;;8.83;2.43;;;9.50;99.90;;;10.30;100.00;98797.50;4927654;29;21004;-79
2023/05/19 00:32:59;;;;;;;5.67;2.00;;;9.40;99.90;;;10.27;100.00;98790.00;4927719;29;20513;-79
2023/05/19 00:35:28;;;;;;;9.10;2.60;;;9.40;99.90;;;10.17;100.00;98787.53;4928113;28;20811;-80
2023/05/19 00:37:57;;;;;;;7.17;2.43;;;9.40;99.90;;;10.05;100.00;98794.06;4928603;29;20470;-79
2023/05/19 00:40:29;;;;;;;5.90;2.50;;;9.40;99.90;;;10.01;100.00;98784.94;4927579;29;20489;-79
2023/05/19 00:42:59;;;;;;;3.93;2.00;;;9.30;99.90;;;9.99;100.00;98784.31;4927792;29;20494;-79
2023/05/19 00:45:29;;;;;;;9.37;1.90;;;9.30;99.90;;;9.98;100.00;98785.28;4927288;29;20470;-79
2023/05/19 00:47:58;;;;;;;7.93;2.50;;;9.20;99.90;;;9.99;100.00;98779.88;4926525;29;20466;-78
2023/05/19 00:50:28;;;;;;;4.33;2.13;;;9.20;99.90;;;9.98;100.00;98780.03;4923381;29;20462;-79
2023/05/19 00:52:57;;;;;;;7.50;1.93;;;9.20;99.90;;;9.96;100.00;98779.41;4923992;29;20477;-79
2023/05/19 00:55:29;;;;;;;8.70;2.67;;;9.10;99.90;;;9.93;100.00;98779.72;4925287;29;21532;-79
2023/05/19 00:58:01;;;;;;;3.40;2.10;;;9.10;99.90;;;9.87;100.00;98780.38;4924663;29;20988;-79
2023/05/19 01:00:31;;;;;;;7.53;2.40;;;9.10;99.90;;;9.81;100.00;98776.63;4926646;29;20947;-79
2023/05/19 01:03:01;;;;;;;9.63;2.33;;;9.00;99.90;;;9.76;100.00;98781.50;4924051;29;20589;-79
2023/05/19 01:05:31;;;;;;;5.53;2.83;;;9.00;99.90;;;9.76;100.00;98778.91;4924283;29;21250;-79
2023/05/19 01:08:00;;;;;;;6.70;2.10;;;8.90;99.90;;;9.77;100.00;98784.94;4923696;29;20684;-79
2023/05/19 01:10:30;;;;;;;7.70;2.10;;;9.00;99.90;;;9.77;100.00;98779.72;4923857;29;20481;-79
2023/05/19 01:13:00;;;;;;;3.27;2.20;;;9.00;99.90;;;9.71;100.00;98785.59;4923743;29;20470;-79
2023/05/19 01:15:30;;;;;;;7.37;2.00;;;9.00;99.90;;;9.66;100.00;98777.44;4924617;29;20486;-80
2023/05/19 01:18:09;;;;;;;5.77;1.70;;;8.90;99.90;;;9.63;100.00;98781.19;4923160;29;20517;-79
2023/05/19 01:20:45;;;;;;;4.10;2.57;;;8.80;99.90;;;9.60;100.00;98777.13;4923334;29;21118;-79
2023/05/19 01:23:28;;;;;;;3.30;2.10;;;8.80;99.90;;;9.55;100.00;98771.56;4923059;29;20557;-79
2023/05/19 01:26:42;;;;;;;9.10;2.50;;;8.80;99.90;;;9.56;100.00;98777.59;4922713;29;21040;-79
2023/05/19 01:29:59;;;;;;;5.33;2.53;;;8.80;99.90;;;9.50;100.00;98773.03;4905592;29;20477;-79
2023/05/19 01:32:31;;;;;;;3.97;2.60;;;8.70;99.90;;;9.50;100.00;98778.25;4911309;29;20478;-79
2023/05/19 01:35:01;;;;;;;5.03;2.40;;;8.70;99.90;;;9.45;100.00;98775.31;4923270;29;21438;-80
2023/05/19 01:37:30;;;;;;;9.53;2.47;;;8.70;99.90;;;9.39;100.00;98776.78;4923950;29;20481;-79
2023/05/19 01:40:00;;;;;;;8.37;2.70;;;8.70;99.90;;;9.36;100.00;98776.28;4923410;29;20474;-79
2023/05/19 01:42:36;;;;;;;5.60;2.23;;;8.60;99.90;;;9.34;100.00;98781.66;4923776;29;20499;-79
2023/05/19 01:45:09;;;;;;;9.60;2.50;;;8.50;99.90;;;9.29;100.00;98776.09;4921773;29;20485;-78
2023/05/19 01:47:43;;;;;;;7.43;4.10;;;8.50;99.90;;;9.25;100.00;98776.59;4924039;29;20580;-79
2023/05/19 01:50:13;;;;;;;11.80;2.93;;;8.50;99.90;;;9.22;100.00;98780.34;4923333;29;20537;-79
2023/05/19 01:52:42;;;;;;;3.83;2.30;;;8.50;99.90;;;9.16;100.00;98774.94;4922489;29;20485;-79
2023/05/19 01:55:11;;;;;;;5.47;2.47;;;8.50;99.90;;;9.09;100.00;98777.38;4923584;29;20477;-79
2023/05/19 01:57:55;;;;;;;11.73;2.60;;;8.40;99.90;;;9.04;100.00;98777.03;4924194;29;20489;-80
2023/05/19 02:00:36;;;;;;;4.47;2.00;;;8.40;99.90;;;9.00;100.00;98776.53;4923225;29;20478;-79
2023/05/19 02:03:21;;;;;;;4.53;2.47;;;8.30;99.90;;;9.02;100.00;98779.00;4925078;29;21107;-80
2023/05/19 02:05:59;;;;;;;5.70;2.90;;;8.20;99.90;;;8.98;100.00;98767.25;4922783;29;20884;-79
2023/05/19 02:08:34;;;;;;;4.20;2.03;;;8.20;99.90;;;8.95;100.00;98775.38;4922178;29;20470;-79
2023/05/19 02:11:21;;;;;;;5.30;2.53;;;8.20;99.90;;;8.94;100.00;98774.56;4923763;29;20466;-79
2023/05/19 02:13:56;;;;;;;7.30;2.37;;;8.20;99.90;;;8.90;100.00;98775.84;4926251;29;20470;-79
2023/05/19 02:16:29;;;;;;;2.60;2.23;;;8.20;99.90;;;8.87;100.00;98780.56;4925616;29;20462;-79
2023/05/19 02:18:59;;;;;;;3.77;2.00;;;8.20;99.90;;;8.81;100.00;98778.59;4926571;29;20502;-78
2023/05/19 02:21:28;;;;;;;3.90;2.17;;;8.10;99.90;;;8.79;100.00;98777.91;4926049;29;20451;-79
2023/05/19 02:23:57;;;;;;;8.27;2.13;;;8.10;99.90;;;8.78;100.00;98776.31;4926086;29;20835;-80
2023/05/19 02:26:27;;;;;;;12.90;2.40;;;8.00;99.90;;;8.77;100.00;98775.47;4925385;29;20467;-79
2023/05/19 02:28:55;;;;;;;8.77;2.17;;;8.00;99.90;;;8.77;100.00;98779.88;4925038;29;20490;-79
2023/05/19 02:31:24;;;;;;;3.60;2.00;;;8.00;99.90;;;8.77;100.00;98775.47;4925143;29;20455;-79
2023/05/19 02:33:54;;;;;;;4.10;2.57;;;8.00;99.90;;;8.76;100.00;98778.22;4925109;29;20470;-79
2023/05/19 02:36:25;;;;;;;3.80;1.90;;;8.00;99.90;;;8.74;100.00;98781.00;4926094;29;20479;-81
2023/05/19 02:38:55;;;;;;;7.67;2.53;;;7.90;99.90;;;8.70;100.00;98776.25;4925925;29;20455;-78
2023/05/19 02:41:24;;;;;;;2.50;1.73;;;7.90;99.90;;;8.65;100.00;98771.50;4924601;29;20459;-79
2023/05/19 02:43:53;;;;;;;4.70;2.27;;;7.90;99.90;;;8.65;100.00;98763.69;4925151;29;20502;-79
2023/05/19 02:46:22;;;;;;;3.57;2.37;;;7.90;99.90;;;8.63;100.00;98764.81;4925626;29;20547;-79
2023/05/19 02:48:51;;;;;;;3.10;2.20;;;7.90;99.90;;;8.57;100.00;98759.25;4923701;29;20467;-78
2023/05/19 02:51:20;;;;;;;2.30;1.80;;;7.80;99.90;;;8.55;100.00;98756.00;4921613;29;20545;-79
2023/05/19 02:53:50;;;;;;;2.20;2.00;;;7.80;99.90;;;8.53;100.00;98768.38;4923460;29;20478;-79
2023/05/19 02:56:18;;;;;;;5.93;2.30;;;7.80;99.90;;;8.50;100.00;98758.25;4920251;29;20471;-80
2023/05/19 02:58:48;;;;;;;3.53;2.40;;;7.80;99.90;;;8.49;100.00;98759.25;4922248;29;20497;-79
2023/05/19 03:01:20;;;;;;;4.03;1.73;;;7.70;99.90;;;8.48;100.00;98765.41;4921361;29;20467;-79
2023/05/19 03:03:48;;;;;;;5.33;2.63;;;7.70;99.90;;;8.49;100.00;98763.63;4922987;29;20581;-81
2023/05/19 03:06:17;;;;;;;4.23;2.00;;;7.70;99.90;;;8.44;100.00;98771.91;4924169;29;20474;-78
2023/05/19 03:08:46;;;;;;;4.97;2.60;;;7.70;99.90;;;8.40;100.00;98762.75;4920822;29;20462;-79
2023/05/19 03:11:16;;;;;;;3.83;2.17;;;7.60;99.90;;;8.38;100.00;98767.31;4924082;29;20955;-78
2023/05/19 03:13:44;;;;;;;2.50;1.87;;;7.60;99.90;;;8.35;100.00;98770.25;4925136;29;20466;-79
2023/05/19 03:16:14;;;;;;;6.57;2.10;;;7.60;99.90;;;8.31;100.00;98761.09;4924262;29;20522;-79
2023/05/19 03:18:43;;;;;;;3.87;2.10;;;7.60;99.90;;;8.30;100.00;98764.66;4924485;29;20565;-80
2023/05/19 03:21:12;;;;;;;7.27;2.90;;;7.50;99.90;;;8.29;100.00;98770.88;4925386;29;20462;-78
2023/05/19 03:23:41;;;;;;;11.77;2.70;;;7.50;99.90;;;8.25;100.00;98763.47;4927991;29;20871;-78
2023/05/19 03:26:11;;;;;;;6.43;2.40;;;7.50;99.90;;;8.24;100.00;98760.03;4927956;29;20467;-80
2023/05/19 03:28:41;;;;;;;9.13;2.30;;;7.50;99.90;;;8.24;100.00;98767.88;4927568;29;20843;-79
2023/05/19 03:31:10;;;;;;;3.13;1.93;;;7.40;99.90;;;8.21;100.00;98769.97;4928272;29;20478;-79
2023/05/19 03:33:39;;;;;;;3.73;2.30;;;7.40;99.90;;;8.19;100.00;98767.50;4913357;29;21025;-78
2023/05/19 03:36:08;;;;;;;6.80;2.57;;;7.40;99.90;;;8.20;100.00;98768.31;4928678;29;20910;-78
2023/05/19 03:38:37;;;;;;;2.90;1.83;;;7.40;99.90;;;8.18;100.00;98765.88;4929584;29;20474;-78
2023/05/19 03:41:07;;;;;;;3.47;2.07;;;7.40;99.90;;;8.16;100.00;98765.19;4928044;29;20505;-79
2023/05/19 03:43:37;;;;;;;5.37;2.50;;;7.40;99.90;;;8.13;100.00;98767.28;4928087;29;20501;-79
2023/05/19 03:46:08;;;;;;;7.97;2.33;;;7.30;99.90;;;8.13;100.00;98765.50;4928073;29;20557;-80
2023/05/19 03:48:37;;;;;;;6.80;2.50;;;7.30;99.90;;;8.12;100.00;98768.28;4922394;29;21193;-78
2023/05/19 03:51:06;;;;;;;10.20;3.00;;;7.30;99.90;;;8.13;100.00;98768.13;4922937;29;20498;-79
2023/05/19 03:53:34;;;;;;;4.47;2.33;;;7.30;99.90;;;8.08;100.00;98767.78;4927637;29;20474;-76
2023/05/19 03:56:04;;;;;;;7.07;2.53;;;7.30;99.90;;;8.05;100.00;98773.28;4926644;29;20473;-78
2023/05/19 03:58:32;;;;;;;6.40;2.90;;;7.30;99.90;;;8.04;100.00;98771.66;4926802;29;20547;-79
2023/05/19 04:01:02;;;;;;;7.17;2.67;;;7.30;99.90;;;8.03;100.00;98765.63;4927887;29;20473;-78
2023/05/19 04:03:32;;;;;;;5.90;2.00;;;7.30;99.90;;;8.03;100.00;98772.63;4927985;29;20498;-78
2023/05/19 04:06:01;;;;;;;3.23;1.93;;;7.20;99.90;;;8.00;100.00;98771.13;4927569;29;20510;-79
2023/05/19 04:08:30;;;;;;;6.70;2.90;;;7.20;99.90;;;8.00;100.00;98771.13;4927882;29;20553;-79
2023/05/19 04:10:59;;;;;;;5.43;2.37;;;7.20;99.90;;;8.03;100.00;98775.22;4926476;29;20957;-79
2023/05/19 04:13:28;;;;;;;8.23;2.40;;;7.20;99.90;;;8.03;100.00;98770.81;4925239;29;20831;-77
2023/05/19 04:15:57;;;;;;;5.27;2.40;;;7.20;99.90;;;8.04;100.00;98772.47;4920882;29;20471;-78
2023/05/19 04:18:26;;;;;;;4.37;2.10;;;7.20;99.90;;;8.03;100.00;98767.41;4926829;29;20497;-78
2023/05/19 04:20:58;;;;;;;5.33;2.73;;;7.20;99.90;;;8.02;100.00;98774.41;4929013;29;21090;-80
2023/05/19 04:23:28;;;;;;;11.80;2.97;;;7.20;99.90;;;7.97;100.00;98771.44;4927175;29;20510;-81
2023/05/19 04:25:56;;;;;;;7.60;2.10;;;7.20;99.90;;;7.98;100.00;98782.69;4926782;29;21014;-78
2023/05/19 04:28:26;;;;;;;7.07;2.90;;;7.20;99.90;;;7.97;100.00;98781.03;4924602;29;20463;-77
2023/05/19 04:30:57;;;;;;;3.60;2.07;;;7.20;99.90;;;7.95;100.00;98782.97;4922793;29;20857;-78
2023/05/19 04:33:28;;;;;;;5.83;2.30;;;7.20;99.90;;;7.92;100.00;98780.66;4923341;29;20477;-78
2023/05/19 04:35:58;;;;;;;5.83;2.60;;;7.20;99.90;;;7.88;100.00;98777.56;4925408;29;20474;-78
2023/05/19 04:38:28;;;;;;;4.33;2.07;;;7.20;99.90;;;7.84;100.00;98781.44;4927952;29;20858;-79
2023/05/19 04:41:00;;;;;;;5.47;2.03;;;7.20;99.90;;;7.82;100.00;98782.56;4929565;29;21067;-78
2023/05/19 04:43:29;;;;;;;3.80;2.13;;;7.10;99.90;;;7.84;100.00;98778.03;4927075;29;20502;-79
2023/05/19 04:46:00;;;;;;;3.53;2.07;;;7.10;99.90;;;7.82;100.00;98782.56;4927800;29;20477;-78
2023/05/19 04:48:29;;;;;;;3.13;2.10;;;7.10;99.90;;;7.80;100.00;98781.91;4927177;29;20466;-78
2023/05/19 04:51:00;;;;;;;3.70;2.10;;;7.10;99.90;;;7.77;100.00;98777.81;4927101;29;20947;-79
2023/05/19 04:53:29;;;;;;;2.60;2.00;;;7.20;99.90;;;7.72;100.00;98777.44;4927131;29;20483;-79
2023/05/19 04:55:59;;;;;;;10.67;2.33;;;7.10;99.90;;;7.74;100.00;98780.69;4927844;29;20467;-79
2023/05/19 04:58:28;;;;;;;2.87;1.90;;;7.10;99.90;;;7.76;100.00;98788.38;4928829;29;20475;-79
2023/05/19 05:00:58;;;;;;;3.23;1.90;;;7.10;99.90;;;7.76;100.00;98780.56;4928382;29;20502;-79
2023/05/19 05:03:27;;;;;;;7.40;2.57;;;7.10;99.90;;;7.74;100.00;98785.09;4928005;29;20496;-79
2023/05/19 05:05:57;;;;;;;6.43;2.13;;;7.10;99.90;;;7.75;100.00;98786.72;4928018;29;20918;-78
2023/05/19 05:08:29;;;;;;;8.00;3.80;;;7.10;99.90;;;7.79;100.00;98791.50;4928828;29;20472;-79
2023/05/19 05:10:58;;;;;;;5.00;1.80;;;7.10;99.90;;;7.82;100.00;98791.19;4927410;29;20478;-78
2023/05/19 05:13:27;;;;;;;7.63;2.03;;;7.10;99.90;;;7.84;100.00;98791.03;4928501;29;20470;-78
2023/05/19 05:15:57;;;;;;;5.27;2.57;;;7.20;99.90;;;7.85;100.00;98784.84;4926929;29;20493;-78
2023/05/19 05:18:26;;;;;;;6.83;2.00;;;7.20;99.90;;;7.87;100.00;98783.75;4928398;29;21047;-79
2023/05/19 05:20:56;;;;;;;5.33;2.73;;;7.20;99.90;;;7.88;100.00;98780.16;4927417;29;20514;-79
2023/05/19 05:23:27;;;;;;;3.80;2.10;;;7.20;99.90;;;7.90;100.00;98783.44;4925748;29;20490;-79
2023/05/19 05:25:56;;;;;;;4.17;2.00;;;7.20;99.90;;;7.95;100.00;98788.16;4925539;29;20489;-80
2023/05/19 05:28:25;;;;;;;5.47;2.40;;;7.30;99.90;;;7.97;100.00;98787.06;4928137;29;20499;-79
2023/05/19 05:30:55;;;;;;;2.90;2.47;;;7.30;99.90;;;7.99;100.00;98773.88;4926614;29;20486;-79
2023/05/19 05:33:25;;;;;;;3.50;2.10;;;7.30;99.90;;;8.03;100.00;98770.81;4926854;29;20493;-79
2023/05/19 05:35:54;;;;;;;6.30;2.50;;;7.30;99.90;;;8.09;100.00;98769.38;4926378;29;20481;-79
2023/05/19 05:38:25;;;;;;;6.70;2.30;;;7.40;99.90;;;8.17;100.00;98779.88;4927535;29;20479;-78
2023/05/19 05:40:54;;;;;;;7.10;2.10;;;7.40;99.90;;;8.21;100.00;98778.59;4926736;29;21570;-79
2023/05/19 05:43:22;;;;;;;4.87;2.17;;;7.50;99.90;;;8.28;100.00;98774.44;4925755;29;20459;-79
2023/05/19 05:45:51;;;;;;;3.60;2.20;;;7.50;99.90;;;8.36;100.00;98776.28;4926131;29;20833;-78
2023/05/19 05:48:22;;;;;;;5.23;2.30;;;7.60;99.90;;;8.41;100.00;98774.81;4927897;29;21209;-79
2023/05/19 05:50:53;;;;;;;3.80;2.23;;;7.60;99.90;;;8.46;100.00;98764.75;4927923;29;20473;-78
2023/05/19 05:53:30;;;;;;;1.93;1.60;;;7.70;99.90;;;8.50;100.00;98763.47;4927598;29;20493;-79
2023/05/19 05:56:01;;;;;;;7.90;2.20;;;7.70;99.90;;;8.56;100.00;98773.28;4927660;29;20540;-78
2023/05/19 05:58:31;;;;;;;6.33;2.23;;;7.80;99.90;;;8.63;100.00;98765.66;4927762;29;21043;-78
2023/05/19 06:01:01;;;;;;;6.97;2.20;;;7.90;99.90;;;8.69;100.00;98761.59;4926281;29;20968;-79
2023/05/19 06:03:30;;;;;;;6.67;2.50;;;7.90;99.90;;;8.76;100.00;98767.81;4926866;29;20513;-79
2023/05/19 06:06:00;;;;;;;4.67;2.23;;;7.90;99.90;;;8.81;100.00;98760.34;4925567;29;20525;-79
2023/05/19 06:08:31;;;;;;;5.13;2.07;;;8.00;99.90;;;8.88;100.00;98767.38;4926097;29;20501;-79
2023/05/19 06:10:59;;;;;;;4.53;2.10;;;8.20;99.90;;;8.93;100.00;98761.66;4925807;29;20478;-79
2023/05/19 06:13:28;;;;;;;5.33;2.37;;;8.20;99.90;;;8.98;100.00;98762.03;4926686;29;20470;-79
2023/05/19 06:15:57;;;;;;;7.53;2.40;;;8.20;99.90;;;9.05;100.00;98756.00;4923792;29;20893;-78
2023/05/19 06:18:29;;;;;;;2.13;1.60;;;8.30;99.90;;;9.13;100.00;98754.41;4926123;29;20546;-79
2023/05/19 06:20:58;;;;;;;3.20;1.90;;;8.30;99.90;;;9.21;100.00;98752.59;4927316;29;20470;-77
2023/05/19 06:23:27;;;;;;;7.83;2.20;;;8.40;99.90;;;9.30;100.00;98751.63;4926535;29;20475;-78
2023/05/19 06:25:58;;;;;;;4.10;1.80;;;8.50;99.90;;;9.39;100.00;98749.84;4927024;29;20502;-78
2023/05/19 06:28:27;;;;;;;5.50;1.87;;;8.60;99.90;;;9.47;100.00;98744.66;4928176;29;20462;-78
2023/05/19 06:30:56;;;;;;;4.20;1.93;;;8.70;99.90;;;9.55;100.00;98740.22;4926827;29;20876;-80
2023/05/19 06:33:25;;;;;;;6.87;2.00;;;8.70;99.90;;;9.66;100.00;98743.50;4925536;29;20467;-78
2023/05/19 06:35:57;;;;;;;2.67;1.60;;;8.90;99.90;;;9.74;100.00;98740.88;4926950;29;20474;-77
2023/05/19 06:38:25;;;;;;;4.87;1.80;;;9.00;99.90;;;9.83;100.00;98739.88;4926948;29;21071;-78
2023/05/19 06:40:54;;;;;;;4.33;1.57;;;9.10;99.90;;;9.92;100.00;98741.53;4926015;29;20466;-78
2023/05/19 06:43:24;;;;;;;5.07;1.77;;;9.20;99.90;;;10.01;100.00;98750.97;4926249;29;20481;-78
2023/05/19 06:45:53;;;;;;;8.33;2.03;;;9.30;99.90;;;10.08;100.00;98738.88;4926587;29;20494;-78
2023/05/19 06:48:21;;;;;;;3.43;1.70;;;9.30;99.90;;;10.16;100.00;98746.75;4926717;29;20966;-78
2023/05/19 06:50:50;;;;;;;3.27;1.90;;;9.40;99.90;;;10.23;100.00;98737.25;4926434;29;20505;-78
2023/05/19 06:53:20;;;;;;;5.33;1.60;;;9.60;99.90;;;10.31;100.00;98742.44;4925770;29;21016;-78
2023/05/19 06:55:50;;;;;;;6.23;1.77;;;9.60;99.90;;;10.39;100.00;98739.81;4925046;29;21104;-78
2023/05/19 06:58:28;;;;;;;2.03;1.40;;;9.70;99.90;;;10.47;100.00;98736.34;4926664;29;20473;-77
2023/05/19 07:00:57;;;;;;;4.80;2.33;;;9.80;99.90;;;10.56;100.00;98733.53;4925348;29;20508;-78
2023/05/19 07:03:26;;;;;;;2.80;1.83;;;9.90;99.90;;;10.66;100.00;98740.34;4926045;29;20555;-77
2023/05/19 07:05:55;;;;;;;4.23;1.73;;;9.90;99.90;;;10.77;100.00;98737.34;4926389;29;20494;-77
2023/05/19 07:08:26;;;;;;;2.40;1.83;;;10.00;99.90;;;10.89;100.00;98734.19;4926374;29;20471;-77
2023/05/19 07:10:55;;;;;;;9.07;1.90;;;10.20;99.90;;;10.98;100.00;98733.16;4925532;29;20550;-77
2023/05/19 07:13:23;;;;;;;7.27;2.37;;;10.30;99.90;;;11.08;100.00;98735.53;4925839;29;20474;-77
2023/05/19 07:15:56;;;;;;;3.67;2.23;;;10.40;99.90;;;11.18;100.00;98736.13;4924988;29;21044;-77
2023/05/19 07:18:25;;;;;;;6.40;1.50;;;10.50;99.90;;;11.31;100.00;98725.91;4923823;29;20489;-76
2023/05/19 07:20:53;;;;;;;4.23;2.07;;;10.70;99.90;;;11.42;100.00;98717.63;4926216;29;20585;-77
2023/05/19 07:23:22;;;;;;;5.67;2.10;;;10.80;99.90;;;11.55;100.00;98723.13;4925789;29;20478;-81
2023/05/19 07:25:54;;;;;;;4.33;1.90;;;10.90;99.90;;;11.66;100.00;98724.50;4926223;29;21017;-77
2023/05/19 07:28:24;;;;;;;10.73;3.50;;;11.00;99.90;;;11.76;100.00;98724.28;4924270;29;20462;-77
2023/05/19 07:30:53;;;;;;;4.17;2.07;;;11.30;99.90;;;11.86;100.00;98714.34;4925053;29;20986;-77
2023/05/19 07:33:22;;;;;;;6.90;2.40;;;11.30;99.90;;;11.96;100.00;98714.91;4926005;29;20462;-77
2023/05/19 07:35:51;;;;;;;4.90;1.97;;;11.30;99.90;;;12.03;100.00;98715.81;4925523;29;20505;-77
2023/05/19 07:38:20;;;;;;;5.90;1.60;;;11.50;99.90;;;12.11;100.00;98713.13;4926519;29;20525;-78
2023/05/19 07:40:49;;;;;;;4.03;2.00;;;11.60;99.90;;;12.18;100.00;98706.16;4924779;29;20470;-77
2023/05/19 07:43:18;;;;;;;3.40;2.00;;;11.60;99.90;;;12.29;100.00;98715.34;4926755;29;20463;-79
2023/05/19 07:45:47;;;;;;;5.50;1.60;;;11.70;99.90;;;12.37;99.65;98713.47;4926875;29;20541;-77
2023/05/19 07:48:17;;;;;;;4.10;1.83;;;11.80;99.90;;;12.46;98.31;98712.38;4925649;29;20466;-77
2023/05/19 07:50:47;;;;;;;4.70;1.50;;;11.80;99.90;;;12.52;97.39;98713.47;4926708;29;20553;-77
2023/05/19 07:53:16;;;;;;;3.13;1.53;;;11.90;99.90;;;12.57;95.95;98711.91;4925033;29;20469;-77
2023/05/19 07:55:45;;;;;;;4.67;1.93;;;12.00;99.90;;;12.63;93.55;98713.00;4925001;29;20467;-77
2023/05/19 07:58:14;;;;;;;7.53;2.10;;;12.00;99.90;;;12.70;93.37;98711.28;4925045;29;20473;-76
2023/05/19 08:00:44;;;;;;;4.60;1.83;;;12.10;99.90;;;12.75;91.78;98710.69;4924486;29;21458;-77
2023/05/19 08:03:16;;;;;;;5.70;1.70;;;12.10;99.90;;;12.80;91.90;98713.59;4925912;29;20469;-77
2023/05/19 08:05:45;;;;;;;4.93;1.70;;;12.20;99.90;;;12.85;91.86;98713.84;4924710;29;20529;-79
2023/05/19 08:08:17;;;;;;;5.10;1.80;;;12.20;99.90;;;12.90;91.31;98703.63;4927048;29;20478;-77
2023/05/19 08:10:46;;;;;;;5.63;2.23;;;12.30;99.80;;;12.93;91.48;98711.94;4929005;29;20478;-77
2023/05/19 08:13:16;;;;;;;5.03;2.00;;;12.30;99.90;;;12.98;91.11;98716.63;4928501;29;21013;-77
2023/05/19 08:15:45;;;;;;;6.47;2.10;;;12.40;99.80;;;12.99;90.48;98716.44;4927947;29;20561;-77
2023/05/19 08:18:15;;;;;;;8.23;2.13;;;12.40;99.70;;;13.02;90.09;98713.44;4929280;29;20549;-77
2023/05/19 08:20:45;;;;;;;4.63;1.50;;;12.40;99.60;;;13.05;89.63;98714.91;4928439;29;20474;-78
2023/05/19 08:23:15;;;;;;;8.20;2.10;;;12.40;99.70;;;13.13;88.92;98698.22;4927747;29;21183;-77
2023/05/19 08:25:43;;;;;;;6.83;2.37;;;12.50;99.40;;;13.18;88.63;98701.94;4928129;29;20513;-78
2023/05/19 08:28:12;;;;;;;4.73;2.13;;;12.70;99.10;;;13.22;87.01;98703.19;4928638;29;20881;-78
2023/05/19 08:30:41;;;;;;;5.47;2.23;;;12.80;98.70;;;13.26;86.95;98699.16;4928913;29;20599;-78
2023/05/19 08:33:10;;;;;;;2.03;1.60;;;12.70;98.80;;;13.31;86.81;98707.31;4929097;29;20493;-78
2023/05/19 08:35:39;;;;;;;5.57;2.30;;;12.80;98.70;;;13.36;85.69;98704.13;4928955;29;20470;-78
2023/05/19 08:38:07;;;;;;;5.63;1.67;;;12.90;98.60;;;13.40;85.52;98695.66;4928949;29;20466;-78
2023/05/19 08:40:41;;;;;;;11.60;2.53;;;12.80;98.50;;;13.49;84.61;98693.72;4928089;29;20474;-78
2023/05/19 08:43:10;;;;;;;10.60;2.60;;;12.80;98.10;;;13.57;84.51;98691.75;4928176;29;20464;-78
2023/05/19 08:45:44;;;;;;;6.80;2.83;;;13.00;98.40;;;13.60;83.75;98675.63;4928469;29;20500;-78
2023/05/19 08:48:14;;;;;;;5.63;2.10;;;13.00;98.30;;;13.66;84.32;98676.69;4928557;29;20482;-78
2023/05/19 08:50:57;;;;;;;4.67;1.80;;;13.10;98.40;;;13.73;84.00;98668.84;4928714;29;20513;-78
2023/05/19 08:53:35;;;;;;;4.10;1.63;;;13.10;98.30;;;13.81;84.06;98673.97;4927977;29;20962;-78
2023/05/19 08:56:13;;;;;;;5.67;2.60;;;13.20;98.30;;;13.87;83.12;98681.06;4927940;29;20481;-79
2023/05/19 08:58:44;;;;;;;8.30;2.97;;;13.40;98.00;;;13.90;82.62;98673.63;4927983;29;20478;-78
2023/05/19 09:01:15;;;;;;;6.40;2.13;;;13.30;98.10;;;13.92;82.96;98663.69;4927910;29;20529;-78
2023/05/19 09:03:45;;;;;;;4.87;1.97;;;13.30;98.10;;;13.95;82.95;98671.19;4927471;29;20470;-78
2023/05/19 09:06:15;;;;;;;4.93;1.90;;;13.40;98.20;;;13.99;81.93;98671.63;4928036;29;20490;-78
2023/05/19 09:08:45;;;;;;;7.60;1.90;;;13.50;97.80;;;14.00;80.71;98660.13;4927859;29;20475;-78
2023/05/19 09:11:15;;;;;;;6.70;1.73;;;13.50;97.50;;;14.01;79.81;98661.75;4926953;29;20466;-78
2023/05/19 09:13:45;;;;;;;6.60;2.00;;;13.40;97.30;;;14.03;80.58;98655.28;4926835;29;20558;-79
2023/05/19 09:16:13;;;;;;;3.97;2.30;;;13.40;97.70;;;14.10;80.41;98660.56;4926842;29;21009;-78
2023/05/19 09:18:55;;;;;;;9.40;1.97;;;13.50;97.60;;;14.11;80.69;98660.38;4925069;29;20886;-78
2023/05/19 09:21:34;;;;;;;11.40;1.90;;;13.50;97.70;;;14.23;80.88;98660.63;4924516;29;20466;-78
2023/05/19 09:24:05;;;;;;;3.43;2.20;;;13.50;97.90;;;14.24;81.06;98658.81;4925564;29;20606;-78
2023/05/19 09:26:40;;;;;;;8.10;2.13;;;13.50;97.70;;;14.30;81.19;98643.06;4925862;29;20497;-78
2023/05/19 09:29:13;;;;;;;6.63;2.57;;;13.70;97.70;;;14.38;80.89;98656.09;4925132;29;20707;-78
2023/05/19 09:31:50;;;;;;;9.47;2.70;;;13.80;97.70;;;14.45;80.49;98651.66;4928133;29;20502;-78
2023/05/19 09:34:19;;;;;;;8.43;2.03;;;13.90;97.50;;;14.55;80.31;98646.84;4926702;29;20470;-78
2023/05/19 09:36:49;;;;;;;10.13;1.57;;;14.00;97.60;;;14.63;80.20;98643.22;4926127;29;21021;-78
2023/05/19 09:39:19;;;;;;;11.60;2.27;;;14.10;97.60;;;14.68;78.58;98632.13;4928255;29;20553;-79
2023/05/19 09:41:52;;;;;;;8.53;2.73;;;14.20;97.00;;;14.76;78.21;98639.81;4927280;29;20477;-78
2023/05/19 09:44:28;;;;;;;3.80;1.87;;;14.20;97.20;;;14.81;77.78;98645.31;4925935;29;20493;-78
2023/05/19 09:46:59;;;;;;;2.50;1.60;;;14.30;97.00;;;14.81;77.62;98647.94;4926123;29;21052;-78
2023/05/19 09:49:30;;;;;;;5.93;1.87;;;14.20;96.80;;;14.76;76.39;98651.16;4926744;29;20477;-78
2023/05/19 09:52:03;;;;;;;4.50;1.80;;;14.10;96.40;;;14.79;75.46;98636.78;4926358;29;20459;-79
2023/05/19 09:54:34;;;;;;;4.30;1.90;;;14.20;96.40;;;14.69;74.01;98647.69;4926312;29;20473;-79
2023/05/19 09:57:06;;;;;;;6.23;2.30;;;14.00;96.20;;;14.72;74.03;98647.28;4926056;29;20467;-78
2023/05/19 09:59:37;;;;;;;6.83;2.10;;;14.00;96.30;;;14.74;72.96;98631.31;4928073;29;20478;-77
2023/05/19 10:02:15;;;;;;;6.27;1.90;;;14.10;96.00;;;14.81;72.87;98635.59;4925029;29;20470;-78
2023/05/19 10:04:46;;;;;;;6.73;1.80;;;14.10;95.80;;;14.87;73.91;98634.78;4926585;29;20470;-78
2023/05/19 10:07:16;;;;;;;7.13;2.50;;;14.20;96.40;;;14.92;74.43;98636.84;4926891;29;20945;-78
2023/05/19 10:09:48;;;;;;;21.27;2.53;;;14.30;96.40;;;14.99;73.75;98624.50;4927252;29;20482;-78
2023/05/19 10:12:20;;;;;;;7.00;2.00;;;14.40;96.10;;;15.06;72.86;98620.81;4926396;29;21032;-78
2023/05/19 10:14:51;;;;;;;14.50;2.40;;;14.50;95.90;;;15.13;74.53;98626.13;4927238;29;20462;-78
2023/05/19 10:17:21;;;;;;;10.50;2.13;;;14.70;96.40;;;15.11;72.40;98617.59;4928054;29;20583;-78
2023/05/19 10:19:53;;;;;;;6.00;1.87;;;14.50;95.40;;;15.09;72.17;98603.81;4926684;29;20478;-80
2023/05/19 10:22:22;;;;;;;11.27;2.27;;;14.40;95.70;;;15.17;73.61;98619.41;4925686;29;20478;-78
2023/05/19 10:24:51;;;;;;;9.67;1.70;;;14.50;96.60;;;15.21;71.72;98625.91;4926796;29;20471;-78
2023/05/19 10:27:23;;;;;;;3.60;1.77;;;14.60;95.40;;;15.24;69.91;98606.28;4927181;29;20512;-78
2023/05/19 10:29:57;;;;;;;5.17;1.77;;;14.70;95.20;;;15.27;70.00;98600.59;4925813;29;20969;-78
2023/05/19 10:32:30;;;;;;;6.00;2.07;;;14.80;95.20;;;15.27;70.09;98595.31;4926459;29;20467;-78
2023/05/19 10:35:28;;;;;;;4.43;1.93;;;14.60;95.50;;;15.30;69.09;98611.53;4927361;29;20481;-78
2023/05/19 10:38:10;;;;;;;7.13;2.23;;;14.70;94.90;;;15.37;67.84;98591.25;4926071;29;20966;-78